createdAt,value
2023-02-04T00:00:27.441Z,1.30
2023-02-04T00:02:54.443Z,1.67
2023-02-04T00:05:21.977Z,1.15
2023-02-04T00:07:49.090Z,1.92
2023-02-04T00:10:16.224Z,1.58
2023-02-04T00:12:43.166Z,2.35
2023-02-04T00:15:11.222Z,1.48
2023-02-04T00:17:39.360Z,2.10
2023-02-04T00:20:06.766Z,1.40
2023-02-04T00:22:33.883Z,1.05
2023-02-04T00:25:00.923Z,1.52
2023-02-04T00:27:28.044Z,1.63
2023-02-04T00:29:55.134Z,1.40
2023-02-04T00:32:22.236Z,1.50
2023-02-04T00:34:49.485Z,0.90
2023-02-04T00:37:16.763Z,1.70
2023-02-04T00:39:43.707Z,1.45
2023-02-04T00:42:10.701Z,1.35
2023-02-04T00:44:37.706Z,1.27
2023-02-04T00:47:05.423Z,1.55
2023-02-04T00:49:34.016Z,1.35
2023-02-04T00:52:01.034Z,1.02
2023-02-04T00:54:28.449Z,1.33
2023-02-04T00:56:56.885Z,1.48
2023-02-04T00:59:24.584Z,1.90
2023-02-04T01:01:52.949Z,1.30
2023-02-04T01:04:19.826Z,1.55
2023-02-04T01:06:48.386Z,2.15
2023-02-04T01:09:15.485Z,1.38
2023-02-04T01:11:42.725Z,2.10
2023-02-04T01:14:10.126Z,2.20
2023-02-04T01:16:39.550Z,1.80
2023-02-04T01:19:06.626Z,2.35
2023-02-04T01:21:33.562Z,2.20
2023-02-04T01:24:01.640Z,1.10
2023-02-04T01:26:28.769Z,1.73
2023-02-04T01:28:55.773Z,1.55
2023-02-04T01:31:25.028Z,2.17
2023-02-04T01:33:52.802Z,1.20
2023-02-04T01:36:42.043Z,1.83
2023-02-04T01:39:09.028Z,1.65
2023-02-04T01:41:36.002Z,1.77
2023-02-04T01:44:03.259Z,1.30
2023-02-04T01:46:31.297Z,1.40
2023-02-04T01:48:58.368Z,1.40
2023-02-04T01:51:28.067Z,1.65
2023-02-04T02:42:44.334Z,1.60
2023-02-04T02:45:20.841Z,1.40
2023-02-04T02:47:50.144Z,1.90
2023-02-04T02:50:19.341Z,1.70
2023-02-04T02:52:46.533Z,1.40
2023-02-04T02:55:19.509Z,1.33
2023-02-04T02:57:46.725Z,1.55
2023-02-04T03:00:21.921Z,1.10
2023-02-04T03:03:20.418Z,1.55
2023-02-04T03:05:48.322Z,1.50
2023-02-04T03:08:16.490Z,1.30
2023-02-04T03:10:44.622Z,1.58
2023-02-04T03:13:13.090Z,2.03
2023-02-04T03:15:40.381Z,1.83
2023-02-04T03:18:07.372Z,2.42
2023-02-04T03:20:36.091Z,1.35
2023-02-04T03:23:03.900Z,1.40
2023-02-04T03:25:30.919Z,1.42
2023-02-04T03:28:00.041Z,2.08
2023-02-04T03:30:30.209Z,1.30
2023-02-04T03:32:57.341Z,0.98
2023-02-04T03:35:24.300Z,1.35
2023-02-04T03:37:51.483Z,1.30
2023-02-04T03:40:18.545Z,1.60
2023-02-04T03:42:46.838Z,1.67
2023-02-04T03:45:13.901Z,1.40
2023-02-04T03:47:40.849Z,1.60
2023-02-04T03:50:08.243Z,1.70
2023-02-04T03:52:35.205Z,1.40
2023-02-04T03:55:02.249Z,0.98
2023-02-04T03:57:29.272Z,0.88
2023-02-04T03:59:56.181Z,1.27
2023-02-04T04:02:24.987Z,0.80
2023-02-04T04:04:54.420Z,0.93
2023-02-04T04:07:21.425Z,1.30
2023-02-04T04:09:48.568Z,1.48
2023-02-04T04:12:15.521Z,1.65
2023-02-04T04:14:44.085Z,1.45
2023-02-04T04:17:11.218Z,1.58
2023-02-04T04:19:38.226Z,1.42
2023-02-04T04:22:05.244Z,1.23
2023-02-04T04:24:32.558Z,1.85
2023-02-04T04:26:59.793Z,1.42
2023-02-04T04:29:26.699Z,1.90
2023-02-04T04:31:53.716Z,1.38
2023-02-04T04:34:20.662Z,1.98
2023-02-04T04:36:49.435Z,1.65
2023-02-04T04:39:16.452Z,2.20
2023-02-04T04:41:43.539Z,2.08
2023-02-04T04:44:11.458Z,1.80
2023-02-04T04:46:40.640Z,1.90
2023-02-04T04:49:07.674Z,2.38
2023-02-04T04:51:34.607Z,2.33
2023-02-04T04:54:01.534Z,1.92
2023-02-04T04:56:28.553Z,1.60
2023-02-04T04:58:56.830Z,2.45
2023-02-04T05:01:23.830Z,1.77
2023-02-04T05:03:50.935Z,1.42
2023-02-04T05:06:17.867Z,2.05
2023-02-04T05:08:47.735Z,2.22
2023-02-04T05:11:14.716Z,1.45
2023-02-04T05:13:41.608Z,1.85
2023-02-04T05:16:15.445Z,2.33
2023-02-04T05:18:42.564Z,1.67
2023-02-04T05:21:09.467Z,1.55
2023-02-04T05:23:36.527Z,1.10
2023-02-04T05:26:03.429Z,2.53
2023-02-04T05:28:30.423Z,1.30
2023-02-04T05:31:04.969Z,1.38
2023-02-04T05:33:31.945Z,1.40
2023-02-04T05:36:00.032Z,1.35
2023-02-04T05:38:26.998Z,1.52
2023-02-04T05:40:55.196Z,1.25
2023-02-04T05:43:22.130Z,1.83
2023-02-04T05:45:49.043Z,1.27
2023-02-04T05:48:16.175Z,1.67
2023-02-04T05:50:43.318Z,1.35
2023-02-04T05:53:10.436Z,1.38
2023-02-04T05:55:37.374Z,0.88
2023-02-04T05:58:04.384Z,1.13
2023-02-04T06:00:31.588Z,1.20
2023-02-04T06:02:58.753Z,1.50
2023-02-04T06:05:25.829Z,1.13
2023-02-04T06:07:53.735Z,1.38
2023-02-04T06:10:21.459Z,0.98
2023-02-04T06:12:48.641Z,0.88
2023-02-04T06:15:17.377Z,0.70
2023-02-04T06:17:44.354Z,0.93
2023-02-04T06:20:13.403Z,1.08
2023-02-04T06:22:41.073Z,1.40
2023-02-04T06:25:14.726Z,1.42
2023-02-04T06:27:41.802Z,1.20
2023-02-04T06:30:11.126Z,1.15
2023-02-04T06:32:38.049Z,1.27
2023-02-04T06:35:05.281Z,0.90
2023-02-04T06:37:32.525Z,1.02
2023-02-04T06:40:00.962Z,1.00
2023-02-04T06:42:27.907Z,1.88
2023-02-04T06:44:54.920Z,1.05
2023-02-04T06:47:22.999Z,1.50
2023-02-04T06:49:50.057Z,1.27
2023-02-04T06:52:17.286Z,1.35
2023-02-04T06:54:44.935Z,1.20
2023-02-04T06:57:12.634Z,0.82
2023-02-04T06:59:42.303Z,1.25
2023-02-04T07:02:11.086Z,1.23
2023-02-04T07:04:38.423Z,1.08
2023-02-04T07:07:05.429Z,1.20
2023-02-04T07:09:32.465Z,1.25
2023-02-04T07:12:01.445Z,1.25
2023-02-04T07:14:28.841Z,1.20
2023-02-04T07:16:58.188Z,1.50
2023-02-04T07:19:28.234Z,1.40
2023-02-04T07:21:57.039Z,2.47
2023-02-04T07:24:25.531Z,1.00
2023-02-04T07:26:52.712Z,1.23
2023-02-04T07:29:25.613Z,1.60
2023-02-04T07:31:54.083Z,1.67
2023-02-04T07:34:21.374Z,1.60
2023-02-04T07:36:52.246Z,1.42
2023-02-04T07:39:21.951Z,1.17
2023-02-04T07:41:49.005Z,1.20
2023-02-04T07:44:22.202Z,1.42
2023-02-04T07:46:49.640Z,1.38
2023-02-04T07:49:16.681Z,1.20
2023-02-04T07:51:43.906Z,2.08
2023-02-04T07:54:12.798Z,1.45
2023-02-04T07:56:39.899Z,1.60
2023-02-04T07:59:06.970Z,1.63
2023-02-04T08:01:42.755Z,1.55
2023-02-04T08:04:11.995Z,1.15
2023-02-04T08:06:39.158Z,1.17
2023-02-04T08:09:06.108Z,1.30
2023-02-04T08:11:33.118Z,1.15
2023-02-04T08:14:00.188Z,1.55
2023-02-04T08:16:27.127Z,1.15
2023-02-04T08:18:54.062Z,1.40
2023-02-04T08:21:24.873Z,1.27
2023-02-04T08:23:51.972Z,1.27
2023-02-04T08:26:18.989Z,1.35
2023-02-04T08:28:46.168Z,1.23
2023-02-04T08:31:13.251Z,1.63
2023-02-04T08:33:40.268Z,1.00
2023-02-04T08:36:07.535Z,1.48
2023-02-04T08:38:34.585Z,1.40
2023-02-04T08:41:01.662Z,1.05
2023-02-04T08:43:29.091Z,0.77
2023-02-04T08:45:56.012Z,1.45
2023-02-04T08:48:22.972Z,1.10
2023-02-04T08:50:49.965Z,0.70
2023-02-04T08:53:17.917Z,1.20
2023-02-04T08:55:47.701Z,1.02
2023-02-04T08:58:14.738Z,1.30
2023-02-04T09:00:41.773Z,1.20
2023-02-04T09:03:09.158Z,0.82
2023-02-04T09:05:36.084Z,1.00
2023-02-04T09:08:02.983Z,0.82
2023-02-04T09:10:31.226Z,1.05
2023-02-04T09:12:59.422Z,0.55
2023-02-04T09:15:27.163Z,0.80
2023-02-04T09:18:01.203Z,0.90
2023-02-04T09:20:29.515Z,0.68
2023-02-04T09:22:56.710Z,0.82
2023-02-04T09:25:23.703Z,0.90
2023-02-04T09:27:50.624Z,0.73
2023-02-04T09:30:17.807Z,0.82
2023-02-04T09:32:44.918Z,0.75
2023-02-04T09:35:12.288Z,0.70
2023-02-04T09:37:39.206Z,0.68
2023-02-04T09:40:06.564Z,1.33
2023-02-04T09:42:33.906Z,0.82
2023-02-04T09:45:03.191Z,0.93
2023-02-04T09:47:30.586Z,0.85
2023-02-04T09:49:57.585Z,0.68
2023-02-04T09:52:24.766Z,0.50
2023-02-04T09:54:51.860Z,0.50
2023-02-04T09:57:20.157Z,0.57
2023-02-04T09:59:48.830Z,0.68
2023-02-04T10:02:22.358Z,0.63
2023-02-04T10:04:50.153Z,0.47
2023-02-04T10:07:18.421Z,0.52
2023-02-04T10:09:45.513Z,0.40
2023-02-04T10:12:12.671Z,0.20
2023-02-04T10:14:40.442Z,0.50
2023-02-04T10:17:08.252Z,0.45
2023-02-04T10:20:31.060Z,0.25
2023-02-04T10:22:58.357Z,0.20
2023-02-04T10:25:28.540Z,0.32
2023-02-04T10:27:59.464Z,0.40
2023-02-04T10:30:34.047Z,0.40
2023-02-04T10:33:14.244Z,0.10
2023-02-04T10:35:46.051Z,0.17
2023-02-04T10:38:13.178Z,0.25
2023-02-04T10:40:42.017Z,0.10
2023-02-04T10:43:10.738Z,0.20
2023-02-04T10:45:37.795Z,0.10
2023-02-04T10:48:05.053Z,0.22
2023-02-04T10:50:32.657Z,0.10
2023-02-04T10:53:19.196Z,0.22
2023-02-04T10:55:47.242Z,0.10
2023-02-04T10:58:35.692Z,0.10
2023-02-04T11:01:04.108Z,0.10
2023-02-04T11:03:31.165Z,0.10
2023-02-04T11:05:59.286Z,0.00
2023-02-04T11:08:33.541Z,0.00
2023-02-04T11:11:28.713Z,0.00
2023-02-04T11:13:56.098Z,0.00
2023-02-04T11:16:31.744Z,0.00
2023-02-04T11:18:59.517Z,0.00
2023-02-04T11:21:32.736Z,0.00
2023-02-04T11:24:12.210Z,0.10
2023-02-04T11:26:43.074Z,0.00
2023-02-04T11:29:15.846Z,0.43
2023-02-04T11:31:51.272Z,8.20
2023-02-04T11:34:21.706Z,0.20
2023-02-04T11:37:19.783Z,0.10
2023-02-04T11:39:49.918Z,0.10
2023-02-04T11:42:33.371Z,0.50
2023-02-04T11:45:01.923Z,0.20
2023-02-04T11:47:38.162Z,0.00
2023-02-04T11:52:41.618Z,0.00
2023-02-04T11:55:10.308Z,0.00
2023-02-04T11:57:41.644Z,0.20
2023-02-04T12:00:19.818Z,0.08
2023-02-04T12:02:48.681Z,0.30
2023-02-04T12:05:20.846Z,0.10
2023-02-04T12:07:48.276Z,0.40
2023-02-04T12:10:25.182Z,0.20
2023-02-04T12:12:57.863Z,0.08
2023-02-04T12:15:25.902Z,0.10
2023-02-04T12:18:07.466Z,0.20
2023-02-04T12:20:39.850Z,0.10
2023-02-04T12:23:08.603Z,0.40
2023-02-04T12:25:36.961Z,0.30
2023-02-04T12:28:04.210Z,0.10
2023-02-04T12:30:31.221Z,0.10
2023-02-04T12:33:01.280Z,0.10
2023-02-04T12:35:28.180Z,0.10
2023-02-04T12:37:55.183Z,0.00
2023-02-04T12:40:23.351Z,0.00
2023-02-04T12:42:51.754Z,0.00
2023-02-04T12:45:21.100Z,0.68
2023-02-04T12:47:49.890Z,0.20
2023-02-04T12:50:26.945Z,0.00
2023-02-04T12:52:56.371Z,0.00
2023-02-04T12:55:24.269Z,0.00
2023-02-04T12:57:51.449Z,0.10
2023-02-04T13:00:19.734Z,0.10
2023-02-04T13:02:47.115Z,0.15
2023-02-04T13:05:16.465Z,0.20
2023-02-04T13:07:43.511Z,0.10
2023-02-04T13:10:10.564Z,0.10
2023-02-04T13:12:37.737Z,0.32
2023-02-04T13:15:07.489Z,0.10
2023-02-04T13:17:35.683Z,0.10
2023-02-04T13:20:02.741Z,0.20
2023-02-04T13:22:30.009Z,0.10
2023-02-04T13:24:57.014Z,0.15
2023-02-04T13:27:24.079Z,0.52
2023-02-04T13:30:44.722Z,0.47
2023-02-04T13:33:12.772Z,0.22
2023-02-04T13:35:41.011Z,0.10
2023-02-04T13:38:09.467Z,0.10
2023-02-04T13:40:36.709Z,0.00
2023-02-04T13:43:03.655Z,0.20
2023-02-04T13:45:30.868Z,0.20
2023-02-04T13:48:27.966Z,0.10
2023-02-04T13:50:56.029Z,0.22
2023-02-04T13:53:22.980Z,0.10
2023-02-04T13:55:50.050Z,0.20
2023-02-04T13:58:17.026Z,0.38
2023-02-04T14:00:44.179Z,0.20
2023-02-04T14:03:11.543Z,0.22
2023-02-04T14:05:39.057Z,0.10
2023-02-04T14:08:06.108Z,0.20
2023-02-04T14:10:34.848Z,0.10
2023-02-04T14:13:05.408Z,0.10
2023-02-04T14:15:34.651Z,0.25
2023-02-04T14:18:01.674Z,0.10
2023-02-04T14:20:28.673Z,0.10
2023-02-04T14:22:55.991Z,0.10
2023-02-04T14:25:24.673Z,0.20
2023-02-04T14:27:51.747Z,0.00
2023-02-04T14:30:23.372Z,0.52
2023-02-04T14:32:50.435Z,0.10
2023-02-04T14:35:17.580Z,0.10
2023-02-04T14:37:44.631Z,0.00
2023-02-04T14:40:12.181Z,0.47
2023-02-04T14:42:39.544Z,0.00
2023-02-04T14:45:08.420Z,0.00
2023-02-04T14:47:36.027Z,0.20
2023-02-04T14:50:03.284Z,0.00
2023-02-04T14:52:31.562Z,0.10
2023-02-04T14:54:59.388Z,0.00
2023-02-04T14:57:26.434Z,0.10
2023-02-04T14:59:53.484Z,0.00
2023-02-04T15:02:20.700Z,0.10
2023-02-04T15:04:48.694Z,0.10
2023-02-04T15:07:22.687Z,0.00
2023-02-04T15:09:49.801Z,0.20
2023-02-04T15:12:16.767Z,0.00
2023-02-04T15:14:43.865Z,0.52
2023-02-04T15:17:10.865Z,0.10
2023-02-04T15:19:37.889Z,0.00
2023-02-04T15:22:04.884Z,0.03
2023-02-04T15:24:31.997Z,0.10
2023-02-04T15:26:58.918Z,0.00
2023-02-04T15:29:26.063Z,0.05
2023-02-04T15:31:54.067Z,0.00
2023-02-04T15:34:21.215Z,0.00
2023-02-04T15:36:48.423Z,0.10
2023-02-04T15:39:15.507Z,0.10
2023-02-04T15:41:42.490Z,0.43
2023-02-04T15:44:10.854Z,0.20
2023-02-04T15:46:38.122Z,0.00
2023-02-04T15:49:05.136Z,0.00
2023-02-04T15:51:32.184Z,0.00
2023-02-04T15:53:59.282Z,0.00
2023-02-04T15:56:26.247Z,0.00
2023-02-04T15:58:53.396Z,0.00
2023-02-04T16:01:20.581Z,0.10
2023-02-04T16:03:49.483Z,0.03
2023-02-04T16:06:16.632Z,0.20
2023-02-04T16:08:43.611Z,0.05
2023-02-04T16:11:10.542Z,0.00
2023-02-04T16:13:38.621Z,0.10
2023-02-04T16:16:06.161Z,0.10
2023-02-04T16:18:33.322Z,0.10
2023-02-04T16:21:03.364Z,0.10
2023-02-04T16:23:30.323Z,0.10
2023-02-04T16:25:57.332Z,0.10
2023-02-04T16:28:25.251Z,0.00
2023-02-04T16:30:53.799Z,0.20
2023-02-04T16:33:20.928Z,0.10
2023-02-04T16:36:11.929Z,0.20
2023-02-04T16:38:40.495Z,0.10
2023-02-04T16:41:07.725Z,0.28
2023-02-04T16:43:34.758Z,0.20
2023-02-04T16:46:01.972Z,0.13
2023-02-04T16:48:29.117Z,0.30
2023-02-04T16:50:56.210Z,0.45
2023-02-04T16:53:23.257Z,0.20
2023-02-04T16:56:16.861Z,0.20
2023-02-04T16:58:43.894Z,0.10
2023-02-04T17:01:10.862Z,0.25
2023-02-04T17:03:37.796Z,0.20
2023-02-04T17:06:04.879Z,0.30
2023-02-04T17:08:31.965Z,0.30
2023-02-04T17:11:17.905Z,0.60
2023-02-04T17:13:47.559Z,0.35
2023-02-04T17:16:14.675Z,0.47
2023-02-04T17:18:41.753Z,0.40
2023-02-04T17:21:08.680Z,0.40
2023-02-04T17:23:35.714Z,0.20
2023-02-04T17:26:04.026Z,0.88
2023-02-04T17:28:32.332Z,0.55
2023-02-04T17:31:55.927Z,0.60
2023-02-04T17:34:23.021Z,0.47
2023-02-04T17:36:50.015Z,0.63
2023-02-04T17:39:16.934Z,0.60
2023-02-04T17:41:43.890Z,0.98
2023-02-04T17:44:16.887Z,0.50
2023-02-04T17:46:44.169Z,1.20
2023-02-04T17:49:11.144Z,0.60
2023-02-04T17:51:38.120Z,0.73
2023-02-04T17:54:07.210Z,0.70
2023-02-04T17:56:34.233Z,0.73
2023-02-04T17:59:01.150Z,0.98
2023-02-04T18:01:36.396Z,1.10
2023-02-04T18:04:05.047Z,0.70
2023-02-04T18:06:31.953Z,0.50
2023-02-04T18:09:05.075Z,0.88
2023-02-04T18:11:37.680Z,0.80
2023-02-04T18:14:28.236Z,1.27
2023-02-04T18:16:57.817Z,0.40
2023-02-04T18:19:37.133Z,0.73
2023-02-04T18:22:14.605Z,0.63
2023-02-04T18:24:44.206Z,0.40
2023-02-04T18:27:24.380Z,0.65
2023-02-04T18:29:55.534Z,0.40
2023-02-04T18:32:26.425Z,0.85
2023-02-04T18:34:55.045Z,0.60
2023-02-04T18:37:38.984Z,0.50
2023-02-04T18:40:11.950Z,1.08
2023-02-04T18:42:43.055Z,0.40
2023-02-04T18:45:26.309Z,0.43
2023-02-04T18:48:22.424Z,0.30
2023-02-04T18:50:50.511Z,0.30
2023-02-04T18:53:26.872Z,0.40
2023-02-04T18:58:39.489Z,0.22
2023-02-04T19:01:09.948Z,0.38
2023-02-04T19:03:44.550Z,0.30
2023-02-04T19:06:38.753Z,0.30
2023-02-04T19:09:15.819Z,0.57
2023-02-04T19:11:48.033Z,0.32
2023-02-04T19:14:38.904Z,0.30
2023-02-04T19:17:36.920Z,0.50
2023-02-04T19:20:29.995Z,0.52
2023-02-04T19:22:58.001Z,0.20
2023-02-04T19:25:35.719Z,0.28
2023-02-04T19:28:24.648Z,0.13
2023-02-04T19:30:58.846Z,0.10
2023-02-04T19:33:37.355Z,0.25
2023-02-04T19:36:35.548Z,0.43
2023-02-04T19:39:39.372Z,0.20
2023-02-04T19:45:32.558Z,0.30
2023-02-04T19:47:59.846Z,0.20
2023-02-04T19:50:32.133Z,0.28
2023-02-04T19:53:08.569Z,0.30
2023-02-04T19:58:24.790Z,0.40
2023-02-04T20:01:02.250Z,0.40
2023-02-04T20:03:50.081Z,0.28
2023-02-04T20:06:43.456Z,0.47
2023-02-04T20:09:18.321Z,0.93
2023-02-04T20:12:18.354Z,0.47
2023-02-04T20:14:52.391Z,0.40
2023-02-04T20:17:39.524Z,0.73
2023-02-04T20:20:26.177Z,0.25
2023-02-04T20:22:57.425Z,0.50
2023-02-04T20:25:39.117Z,0.20
2023-02-04T20:28:16.135Z,0.30
2023-02-04T20:30:43.849Z,0.30
2023-02-04T20:33:31.150Z,0.20
2023-02-04T20:36:26.395Z,0.20
2023-02-04T20:38:59.378Z,0.38
2023-02-04T20:41:29.698Z,0.43
2023-02-04T20:43:57.596Z,0.38
2023-02-04T20:46:25.897Z,0.30
2023-02-04T20:48:53.108Z,0.20
2023-02-04T20:51:24.807Z,0.60
2023-02-04T20:53:54.885Z,0.15
2023-02-04T20:56:29.784Z,0.10
2023-02-04T20:59:04.161Z,0.82
2023-02-04T21:04:22.916Z,0.40
2023-02-04T21:06:50.884Z,0.22
2023-02-04T21:09:28.463Z,0.20
2023-02-04T21:11:56.429Z,0.55
2023-02-04T21:14:23.928Z,0.50
2023-02-04T21:16:51.246Z,0.60
2023-02-04T21:19:22.156Z,0.47
2023-02-04T21:21:49.289Z,0.40
2023-02-04T21:24:16.200Z,0.63
2023-02-04T21:26:43.167Z,0.68
2023-02-04T21:29:11.489Z,0.47
2023-02-04T21:31:38.602Z,0.43
2023-02-04T21:34:06.053Z,1.10
2023-02-04T21:36:34.217Z,1.02
2023-02-04T21:39:01.287Z,0.60
2023-02-04T21:41:29.540Z,0.60
2023-02-04T21:43:56.513Z,0.25
2023-02-04T21:46:23.717Z,0.25
2023-02-04T21:48:50.836Z,0.70
2023-02-04T21:51:18.016Z,0.30
2023-02-04T21:53:47.092Z,0.47
2023-02-04T21:56:14.495Z,1.00
2023-02-04T21:58:41.694Z,0.88
2023-02-04T22:01:10.373Z,0.30
2023-02-04T22:03:37.358Z,0.40
2023-02-04T22:06:04.500Z,0.73
2023-02-04T22:08:31.683Z,0.32
2023-02-04T22:10:58.736Z,0.93
2023-02-04T22:13:25.626Z,0.35
2023-02-04T22:15:52.617Z,0.25
2023-02-04T22:18:21.057Z,0.82
2023-02-04T22:20:50.385Z,0.20
2023-02-04T22:23:17.714Z,0.73
2023-02-04T22:25:45.685Z,0.22
2023-02-04T22:28:13.142Z,0.45
2023-02-04T22:30:41.369Z,0.80
2023-02-04T22:36:59.753Z,0.43
2023-02-04T22:39:26.795Z,0.38
2023-02-04T22:42:01.368Z,0.30
2023-02-04T22:44:29.526Z,0.40
2023-02-04T22:46:56.599Z,0.40
2023-02-04T22:49:23.642Z,0.40
2023-02-04T22:51:51.358Z,0.70
2023-02-04T22:54:18.363Z,0.45
2023-02-04T22:56:46.605Z,0.57
2023-02-04T22:59:13.892Z,0.52
2023-02-04T23:01:40.793Z,0.52
2023-02-04T23:04:08.087Z,0.20
2023-02-04T23:06:35.187Z,0.20
2023-02-04T23:09:02.312Z,0.50
2023-02-04T23:11:31.744Z,0.20
2023-02-04T23:13:58.735Z,0.30
2023-02-04T23:16:25.673Z,0.30
2023-02-04T23:18:55.393Z,0.50
2023-02-04T23:21:22.968Z,0.30
2023-02-04T23:23:50.406Z,0.35
2023-02-04T23:26:17.494Z,0.55
2023-02-04T23:28:44.440Z,0.82
2023-02-04T23:31:11.672Z,0.30
2023-02-04T23:33:38.677Z,0.63
2023-02-04T23:36:05.942Z,0.30
2023-02-04T23:38:33.024Z,1.20
2023-02-04T23:41:00.612Z,0.40
2023-02-04T23:43:27.801Z,0.85
2023-02-04T23:45:57.231Z,0.57
2023-02-04T23:48:24.771Z,0.63
2023-02-04T23:50:52.763Z,0.30
2023-02-04T23:53:21.798Z,0.20
2023-02-04T23:55:49.760Z,0.40
2023-02-04T23:58:20.190Z,0.50
